sensor_id;sensor_type;location;lat;lon;timestamp;temperature;humidity
29539;DHT22;16482;51.046;4.498;2022-09-25T00:00:23;23.50;48.10
29539;DHT22;16482;51.046;4.498;2022-09-25T00:02:49;23.50;48.10
29539;DHT22;16482;51.046;4.498;2022-09-25T00:05:15;23.50;48.10
29539;DHT22;16482;51.046;4.498;2022-09-25T00:07:41;23.50;48.00
29539;DHT22;16482;51.046;4.498;2022-09-25T00:10:07;23.50;48.00
29539;DHT22;16482;51.046;4.498;2022-09-25T00:12:34;23.50;48.00
29539;DHT22;16482;51.046;4.498;2022-09-25T00:15:01;23.50;47.90
29539;DHT22;16482;51.046;4.498;2022-09-25T00:17:27;23.50;47.90
29539;DHT22;16482;51.046;4.498;2022-09-25T00:19:53;23.50;47.90
29539;DHT22;16482;51.046;4.498;2022-09-25T00:22:21;23.50;47.90
29539;DHT22;16482;51.046;4.498;2022-09-25T00:24:47;23.50;47.80
29539;DHT22;16482;51.046;4.498;2022-09-25T00:27:15;23.50;47.80
29539;DHT22;16482;51.046;4.498;2022-09-25T00:29:44;23.50;47.80
29539;DHT22;16482;51.046;4.498;2022-09-25T00:32:12;23.40;47.70
29539;DHT22;16482;51.046;4.498;2022-09-25T00:34:38;23.50;47.70
29539;DHT22;16482;51.046;4.498;2022-09-25T00:37:05;23.50;47.60
29539;DHT22;16482;51.046;4.498;2022-09-25T00:39:32;23.50;47.50
29539;DHT22;16482;51.046;4.498;2022-09-25T00:41:58;23.50;47.50
29539;DHT22;16482;51.046;4.498;2022-09-25T00:47:10;23.40;47.40
29539;DHT22;16482;51.046;4.498;2022-09-25T00:49:37;23.40;47.40
29539;DHT22;16482;51.046;4.498;2022-09-25T00:52:06;23.40;47.30
29539;DHT22;16482;51.046;4.498;2022-09-25T00:54:39;23.40;47.20
29539;DHT22;16482;51.046;4.498;2022-09-25T00:57:11;23.40;47.20
29539;DHT22;16482;51.046;4.498;2022-09-25T00:59:42;23.50;47.20
29539;DHT22;16482;51.046;4.498;2022-09-25T01:02:13;23.40;47.10
29539;DHT22;16482;51.046;4.498;2022-09-25T01:04:43;23.40;47.10
29539;DHT22;16482;51.046;4.498;2022-09-25T01:07:12;23.50;47.00
29539;DHT22;16482;51.046;4.498;2022-09-25T01:09:39;23.40;46.90
29539;DHT22;16482;51.046;4.498;2022-09-25T01:12:06;23.40;46.90
29539;DHT22;16482;51.046;4.498;2022-09-25T01:14:33;23.40;46.90
29539;DHT22;16482;51.046;4.498;2022-09-25T01:17:24;23.40;46.80
29539;DHT22;16482;51.046;4.498;2022-09-25T01:28:18;23.40;46.70
29539;DHT22;16482;51.046;4.498;2022-09-25T01:30:56;23.40;46.70
29539;DHT22;16482;51.046;4.498;2022-09-25T01:33:28;23.40;46.70
29539;DHT22;16482;51.046;4.498;2022-09-25T01:35:57;23.40;46.60
29539;DHT22;16482;51.046;4.498;2022-09-25T01:41:26;23.40;46.40
29539;DHT22;16482;51.046;4.498;2022-09-25T01:44:02;23.40;46.40
29539;DHT22;16482;51.046;4.498;2022-09-25T01:46:34;23.40;46.30
29539;DHT22;16482;51.046;4.498;2022-09-25T01:49:07;23.40;46.30
29539;DHT22;16482;51.046;4.498;2022-09-25T01:51:48;23.40;46.20
29539;DHT22;16482;51.046;4.498;2022-09-25T01:57:01;23.40;46.20
29539;DHT22;16482;51.046;4.498;2022-09-25T01:59:34;23.40;46.10
29539;DHT22;16482;51.046;4.498;2022-09-25T02:02:03;23.40;46.10
29539;DHT22;16482;51.046;4.498;2022-09-25T02:04:38;23.40;46.00
29539;DHT22;16482;51.046;4.498;2022-09-25T02:07:08;23.40;46.00
29539;DHT22;16482;51.046;4.498;2022-09-25T02:09:45;23.40;46.00
29539;DHT22;16482;51.046;4.498;2022-09-25T02:12:16;23.30;45.90
29539;DHT22;16482;51.046;4.498;2022-09-25T02:14:49;23.30;45.90
29539;DHT22;16482;51.046;4.498;2022-09-25T02:17:24;23.30;45.70
29539;DHT22;16482;51.046;4.498;2022-09-25T02:20:09;23.40;45.80
29539;DHT22;16482;51.046;4.498;2022-09-25T02:23:27;23.30;45.70
29539;DHT22;16482;51.046;4.498;2022-09-25T02:26:05;23.40;45.80
29539;DHT22;16482;51.046;4.498;2022-09-25T02:28:34;23.30;45.60
29539;DHT22;16482;51.046;4.498;2022-09-25T02:31:03;23.30;45.60
29539;DHT22;16482;51.046;4.498;2022-09-25T02:33:29;23.30;45.60
29539;DHT22;16482;51.046;4.498;2022-09-25T02:35:58;23.30;45.60
29539;DHT22;16482;51.046;4.498;2022-09-25T02:38:26;23.30;45.50
29539;DHT22;16482;51.046;4.498;2022-09-25T02:41:03;23.30;45.40
29539;DHT22;16482;51.046;4.498;2022-09-25T02:43:52;23.30;45.30
29539;DHT22;16482;51.046;4.498;2022-09-25T02:46:34;23.30;45.30
29539;DHT22;16482;51.046;4.498;2022-09-25T02:49:24;23.30;45.30
29539;DHT22;16482;51.046;4.498;2022-09-25T02:52:11;23.30;45.30
29539;DHT22;16482;51.046;4.498;2022-09-25T02:54:44;23.30;45.20
29539;DHT22;16482;51.046;4.498;2022-09-25T02:57:23;23.30;45.10
29539;DHT22;16482;51.046;4.498;2022-09-25T02:59:58;23.30;45.10
29539;DHT22;16482;51.046;4.498;2022-09-25T03:02:27;23.30;45.00
29539;DHT22;16482;51.046;4.498;2022-09-25T03:04:54;23.30;45.00
29539;DHT22;16482;51.046;4.498;2022-09-25T03:07:21;23.30;45.00
29539;DHT22;16482;51.046;4.498;2022-09-25T03:09:49;23.30;44.90
29539;DHT22;16482;51.046;4.498;2022-09-25T03:12:17;23.30;44.90
29539;DHT22;16482;51.046;4.498;2022-09-25T03:14:43;23.30;44.90
29539;DHT22;16482;51.046;4.498;2022-09-25T03:17:10;23.30;44.90
29539;DHT22;16482;51.046;4.498;2022-09-25T03:19:37;23.30;44.90
29539;DHT22;16482;51.046;4.498;2022-09-25T03:22:03;23.30;44.80
29539;DHT22;16482;51.046;4.498;2022-09-25T03:24:29;23.30;44.80
29539;DHT22;16482;51.046;4.498;2022-09-25T03:26:55;23.30;44.80
29539;DHT22;16482;51.046;4.498;2022-09-25T03:29:21;23.30;44.80
29539;DHT22;16482;51.046;4.498;2022-09-25T03:31:48;23.30;44.70
29539;DHT22;16482;51.046;4.498;2022-09-25T03:34:16;23.30;44.60
29539;DHT22;16482;51.046;4.498;2022-09-25T03:36:42;23.30;44.50
29539;DHT22;16482;51.046;4.498;2022-09-25T03:39:13;23.30;44.60
29539;DHT22;16482;51.046;4.498;2022-09-25T03:41:39;23.30;45.20
29539;DHT22;16482;51.046;4.498;2022-09-25T03:44:05;23.20;44.50
29539;DHT22;16482;51.046;4.498;2022-09-25T03:46:33;23.20;44.50
29539;DHT22;16482;51.046;4.498;2022-09-25T03:49:02;23.30;44.50
29539;DHT22;16482;51.046;4.498;2022-09-25T03:51:29;23.20;44.30
29539;DHT22;16482;51.046;4.498;2022-09-25T03:53:56;23.20;44.30
29539;DHT22;16482;51.046;4.498;2022-09-25T03:56:24;23.20;44.30
29539;DHT22;16482;51.046;4.498;2022-09-25T03:58:52;23.20;44.30
29539;DHT22;16482;51.046;4.498;2022-09-25T04:01:19;23.20;44.20
29539;DHT22;16482;51.046;4.498;2022-09-25T04:03:46;23.20;44.20
29539;DHT22;16482;51.046;4.498;2022-09-25T04:06:14;23.30;44.20
29539;DHT22;16482;51.046;4.498;2022-09-25T04:08:44;23.20;44.10
29539;DHT22;16482;51.046;4.498;2022-09-25T04:11:10;23.20;44.10
29539;DHT22;16482;51.046;4.498;2022-09-25T04:13:36;23.20;44.10
29539;DHT22;16482;51.046;4.498;2022-09-25T04:16:04;23.20;44.10
29539;DHT22;16482;51.046;4.498;2022-09-25T04:18:31;23.20;44.10
29539;DHT22;16482;51.046;4.498;2022-09-25T04:21:03;23.20;44.00
29539;DHT22;16482;51.046;4.498;2022-09-25T04:23:30;23.20;44.10
29539;DHT22;16482;51.046;4.498;2022-09-25T04:25:56;23.20;44.00
29539;DHT22;16482;51.046;4.498;2022-09-25T04:28:22;23.20;44.00
29539;DHT22;16482;51.046;4.498;2022-09-25T04:30:49;23.20;44.00
29539;DHT22;16482;51.046;4.498;2022-09-25T04:33:16;23.20;43.90
29539;DHT22;16482;51.046;4.498;2022-09-25T04:36:00;23.20;43.90
29539;DHT22;16482;51.046;4.498;2022-09-25T04:38:27;23.20;43.80
29539;DHT22;16482;51.046;4.498;2022-09-25T04:40:55;23.20;43.80
29539;DHT22;16482;51.046;4.498;2022-09-25T04:43:22;23.20;43.80
29539;DHT22;16482;51.046;4.498;2022-09-25T04:45:48;23.20;43.80
29539;DHT22;16482;51.046;4.498;2022-09-25T04:48:16;23.20;43.70
29539;DHT22;16482;51.046;4.498;2022-09-25T04:50:47;23.20;43.70
29539;DHT22;16482;51.046;4.498;2022-09-25T04:53:13;23.20;43.80
29539;DHT22;16482;51.046;4.498;2022-09-25T04:55:39;23.20;43.70
29539;DHT22;16482;51.046;4.498;2022-09-25T04:58:05;23.20;43.70
29539;DHT22;16482;51.046;4.498;2022-09-25T05:00:31;23.20;43.70
29539;DHT22;16482;51.046;4.498;2022-09-25T05:03:01;23.20;43.70
29539;DHT22;16482;51.046;4.498;2022-09-25T05:05:28;23.20;43.60
29539;DHT22;16482;51.046;4.498;2022-09-25T05:08:00;23.20;43.50
29539;DHT22;16482;51.046;4.498;2022-09-25T05:10:31;23.20;43.50
29539;DHT22;16482;51.046;4.498;2022-09-25T05:13:02;23.10;43.50
29539;DHT22;16482;51.046;4.498;2022-09-25T05:15:31;23.20;43.50
29539;DHT22;16482;51.046;4.498;2022-09-25T05:18:06;23.20;43.50
29539;DHT22;16482;51.046;4.498;2022-09-25T05:20:34;23.10;43.40
29539;DHT22;16482;51.046;4.498;2022-09-25T05:23:00;23.10;43.50
29539;DHT22;16482;51.046;4.498;2022-09-25T05:25:29;23.10;43.50
29539;DHT22;16482;51.046;4.498;2022-09-25T05:27:58;23.10;43.50
29539;DHT22;16482;51.046;4.498;2022-09-25T05:30:25;23.10;43.30
29539;DHT22;16482;51.046;4.498;2022-09-25T05:32:52;23.10;43.30
29539;DHT22;16482;51.046;4.498;2022-09-25T05:35:20;23.10;43.50
29539;DHT22;16482;51.046;4.498;2022-09-25T05:37:46;23.10;43.60
29539;DHT22;16482;51.046;4.498;2022-09-25T05:40:13;23.10;43.60
29539;DHT22;16482;51.046;4.498;2022-09-25T05:42:43;23.10;43.70
29539;DHT22;16482;51.046;4.498;2022-09-25T05:45:13;23.20;44.00
29539;DHT22;16482;51.046;4.498;2022-09-25T05:47:40;23.20;44.10
29539;DHT22;16482;51.046;4.498;2022-09-25T05:50:07;23.20;44.30
29539;DHT22;16482;51.046;4.498;2022-09-25T05:52:34;23.20;44.30
29539;DHT22;16482;51.046;4.498;2022-09-25T05:55:00;23.30;44.40
29539;DHT22;16482;51.046;4.498;2022-09-25T05:57:30;23.30;44.40
29539;DHT22;16482;51.046;4.498;2022-09-25T05:59:56;23.30;44.40
29539;DHT22;16482;51.046;4.498;2022-09-25T06:02:22;23.30;44.40
29539;DHT22;16482;51.046;4.498;2022-09-25T06:04:48;23.40;44.40
29539;DHT22;16482;51.046;4.498;2022-09-25T06:07:14;23.40;44.30
29539;DHT22;16482;51.046;4.498;2022-09-25T06:09:40;23.40;44.30
29539;DHT22;16482;51.046;4.498;2022-09-25T06:12:06;23.50;44.30
29539;DHT22;16482;51.046;4.498;2022-09-25T06:14:32;23.50;44.30
29539;DHT22;16482;51.046;4.498;2022-09-25T06:17:00;23.50;44.20
29539;DHT22;16482;51.046;4.498;2022-09-25T06:19:26;23.50;44.10
29539;DHT22;16482;51.046;4.498;2022-09-25T06:21:55;23.60;44.10
29539;DHT22;16482;51.046;4.498;2022-09-25T06:24:22;23.60;44.10
29539;DHT22;16482;51.046;4.498;2022-09-25T06:26:48;23.60;44.10
29539;DHT22;16482;51.046;4.498;2022-09-25T06:29:14;23.60;44.10
29539;DHT22;16482;51.046;4.498;2022-09-25T06:31:40;23.60;44.10
29539;DHT22;16482;51.046;4.498;2022-09-25T06:34:08;23.60;43.90
29539;DHT22;16482;51.046;4.498;2022-09-25T06:36:34;23.70;43.80
29539;DHT22;16482;51.046;4.498;2022-09-25T06:39:00;23.70;43.90
29539;DHT22;16482;51.046;4.498;2022-09-25T06:41:26;23.70;43.90
29539;DHT22;16482;51.046;4.498;2022-09-25T06:43:52;23.70;43.80
29539;DHT22;16482;51.046;4.498;2022-09-25T06:46:20;23.70;43.80
29539;DHT22;16482;51.046;4.498;2022-09-25T06:48:55;23.80;43.70
29539;DHT22;16482;51.046;4.498;2022-09-25T06:51:24;23.80;43.60
29539;DHT22;16482;51.046;4.498;2022-09-25T06:53:57;23.90;43.60
29539;DHT22;16482;51.046;4.498;2022-09-25T06:56:23;23.90;43.60
29539;DHT22;16482;51.046;4.498;2022-09-25T06:58:50;23.90;43.60
29539;DHT22;16482;51.046;4.498;2022-09-25T07:01:15;24.00;43.60
29539;DHT22;16482;51.046;4.498;2022-09-25T07:03:42;24.00;43.40
29539;DHT22;16482;51.046;4.498;2022-09-25T07:06:37;24.00;43.40
29539;DHT22;16482;51.046;4.498;2022-09-25T07:09:04;24.10;43.30
29539;DHT22;16482;51.046;4.498;2022-09-25T07:11:30;24.20;43.30
29539;DHT22;16482;51.046;4.498;2022-09-25T07:13:56;24.20;43.20
29539;DHT22;16482;51.046;4.498;2022-09-25T07:16:26;24.20;43.10
29539;DHT22;16482;51.046;4.498;2022-09-25T07:18:56;24.20;43.10
29539;DHT22;16482;51.046;4.498;2022-09-25T07:21:25;24.30;43.20
29539;DHT22;16482;51.046;4.498;2022-09-25T07:23:54;24.30;43.10
29539;DHT22;16482;51.046;4.498;2022-09-25T07:26:27;24.30;43.10
29539;DHT22;16482;51.046;4.498;2022-09-25T07:28:59;24.30;43.00
29539;DHT22;16482;51.046;4.498;2022-09-25T07:31:28;24.40;43.00
29539;DHT22;16482;51.046;4.498;2022-09-25T07:33:56;24.40;43.00
29539;DHT22;16482;51.046;4.498;2022-09-25T07:36:22;24.40;43.00
29539;DHT22;16482;51.046;4.498;2022-09-25T07:38:49;24.40;43.00
29539;DHT22;16482;51.046;4.498;2022-09-25T07:41:15;24.50;43.00
29539;DHT22;16482;51.046;4.498;2022-09-25T07:43:43;24.50;43.10
29539;DHT22;16482;51.046;4.498;2022-09-25T07:46:09;24.50;43.10
29539;DHT22;16482;51.046;4.498;2022-09-25T07:48:36;24.50;43.10
29539;DHT22;16482;51.046;4.498;2022-09-25T07:51:04;24.50;43.10
29539;DHT22;16482;51.046;4.498;2022-09-25T07:53:30;24.60;43.10
29539;DHT22;16482;51.046;4.498;2022-09-25T07:56:01;24.60;43.10
29539;DHT22;16482;51.046;4.498;2022-09-25T07:58:27;24.60;43.20
29539;DHT22;16482;51.046;4.498;2022-09-25T08:00:57;24.60;43.20
29539;DHT22;16482;51.046;4.498;2022-09-25T08:03:24;24.60;43.30
29539;DHT22;16482;51.046;4.498;2022-09-25T08:06:04;24.60;43.30
29539;DHT22;16482;51.046;4.498;2022-09-25T08:08:33;24.60;43.30
29539;DHT22;16482;51.046;4.498;2022-09-25T08:11:04;24.70;43.40
29539;DHT22;16482;51.046;4.498;2022-09-25T08:13:34;24.70;43.40
29539;DHT22;16482;51.046;4.498;2022-09-25T08:16:06;24.70;43.50
29539;DHT22;16482;51.046;4.498;2022-09-25T08:18:35;24.70;43.50
29539;DHT22;16482;51.046;4.498;2022-09-25T08:21:04;24.70;43.50
29539;DHT22;16482;51.046;4.498;2022-09-25T08:23:30;24.70;43.50
29539;DHT22;16482;51.046;4.498;2022-09-25T08:25:57;24.70;43.50
29539;DHT22;16482;51.046;4.498;2022-09-25T08:28:22;24.70;43.60
29539;DHT22;16482;51.046;4.498;2022-09-25T08:30:48;24.70;43.60
29539;DHT22;16482;51.046;4.498;2022-09-25T08:33:14;24.70;43.60
29539;DHT22;16482;51.046;4.498;2022-09-25T08:35:41;24.80;43.70
29539;DHT22;16482;51.046;4.498;2022-09-25T08:38:08;24.80;43.60
29539;DHT22;16482;51.046;4.498;2022-09-25T08:40:49;24.80;43.60
29539;DHT22;16482;51.046;4.498;2022-09-25T08:43:20;24.70;43.60
29539;DHT22;16482;51.046;4.498;2022-09-25T08:45:48;24.80;43.70
29539;DHT22;16482;51.046;4.498;2022-09-25T08:48:45;24.70;43.70
29539;DHT22;16482;51.046;4.498;2022-09-25T08:51:30;24.80;43.80
29539;DHT22;16482;51.046;4.498;2022-09-25T08:53:58;24.70;43.80
29539;DHT22;16482;51.046;4.498;2022-09-25T08:56:26;24.70;43.80
29539;DHT22;16482;51.046;4.498;2022-09-25T09:01:43;24.70;43.90
29539;DHT22;16482;51.046;4.498;2022-09-25T09:04:30;24.70;43.90
29539;DHT22;16482;51.046;4.498;2022-09-25T09:07:06;24.70;44.00
29539;DHT22;16482;51.046;4.498;2022-09-25T09:09:49;24.70;44.10
29539;DHT22;16482;51.046;4.498;2022-09-25T09:12:17;24.70;44.20
29539;DHT22;16482;51.046;4.498;2022-09-25T09:14:47;24.70;44.20
29539;DHT22;16482;51.046;4.498;2022-09-25T09:17:23;24.70;44.30
29539;DHT22;16482;51.046;4.498;2022-09-25T09:20:00;24.70;44.30
29539;DHT22;16482;51.046;4.498;2022-09-25T09:22:39;24.70;44.40
29539;DHT22;16482;51.046;4.498;2022-09-25T09:25:26;24.70;44.50
29539;DHT22;16482;51.046;4.498;2022-09-25T09:28:05;24.70;44.50
29539;DHT22;16482;51.046;4.498;2022-09-25T09:36:30;24.60;44.50
29539;DHT22;16482;51.046;4.498;2022-09-25T09:39:18;24.70;44.50
29539;DHT22;16482;51.046;4.498;2022-09-25T09:41:50;24.70;44.50
29539;DHT22;16482;51.046;4.498;2022-09-25T09:44:32;24.60;44.50
29539;DHT22;16482;51.046;4.498;2022-09-25T09:50:02;24.70;44.50
29539;DHT22;16482;51.046;4.498;2022-09-25T09:52:40;24.60;44.40
29539;DHT22;16482;51.046;4.498;2022-09-25T09:55:43;24.60;44.40
29539;DHT22;16482;51.046;4.498;2022-09-25T09:58:26;24.70;44.40
29539;DHT22;16482;51.046;4.498;2022-09-25T10:00:53;24.60;44.40
29539;DHT22;16482;51.046;4.498;2022-09-25T10:03:24;24.60;44.30
29539;DHT22;16482;51.046;4.498;2022-09-25T10:05:56;24.60;44.30
29539;DHT22;16482;51.046;4.498;2022-09-25T10:08:23;24.60;44.30
29539;DHT22;16482;51.046;4.498;2022-09-25T10:10:52;24.60;44.20
29539;DHT22;16482;51.046;4.498;2022-09-25T10:13:30;24.60;44.20
29539;DHT22;16482;51.046;4.498;2022-09-25T10:16:06;24.60;44.20
29539;DHT22;16482;51.046;4.498;2022-09-25T10:21:41;24.60;44.10
29539;DHT22;16482;51.046;4.498;2022-09-25T10:24:08;24.50;44.20
29539;DHT22;16482;51.046;4.498;2022-09-25T10:26:36;24.50;44.10
29539;DHT22;16482;51.046;4.498;2022-09-25T10:31:49;24.50;44.20
29539;DHT22;16482;51.046;4.498;2022-09-25T10:34:21;24.50;44.20
29539;DHT22;16482;51.046;4.498;2022-09-25T10:36:52;24.50;44.10
29539;DHT22;16482;51.046;4.498;2022-09-25T10:41:54;24.40;43.90
29539;DHT22;16482;51.046;4.498;2022-09-25T10:44:37;24.40;44.00
29539;DHT22;16482;51.046;4.498;2022-09-25T10:50:23;24.50;43.50
29539;DHT22;16482;51.046;4.498;2022-09-25T10:52:52;24.40;42.90
29539;DHT22;16482;51.046;4.498;2022-09-25T10:55:24;24.40;42.80
29539;DHT22;16482;51.046;4.498;2022-09-25T10:58:24;24.40;42.90
29539;DHT22;16482;51.046;4.498;2022-09-25T11:00:55;24.30;43.00
29539;DHT22;16482;51.046;4.498;2022-09-25T11:03:36;24.30;43.10
29539;DHT22;16482;51.046;4.498;2022-09-25T11:06:16;24.30;43.10
29539;DHT22;16482;51.046;4.498;2022-09-25T11:08:52;24.30;43.10
29539;DHT22;16482;51.046;4.498;2022-09-25T11:11:21;24.30;43.20
29539;DHT22;16482;51.046;4.498;2022-09-25T11:13:54;24.30;43.20
29539;DHT22;16482;51.046;4.498;2022-09-25T11:16:20;24.30;43.20
29539;DHT22;16482;51.046;4.498;2022-09-25T11:19:06;24.30;43.20
29539;DHT22;16482;51.046;4.498;2022-09-25T11:21:37;24.30;43.20
29539;DHT22;16482;51.046;4.498;2022-09-25T11:24:17;24.30;43.10
29539;DHT22;16482;51.046;4.498;2022-09-25T11:26:58;24.30;43.00
29539;DHT22;16482;51.046;4.498;2022-09-25T11:35:21;24.30;42.90
29539;DHT22;16482;51.046;4.498;2022-09-25T11:41:30;24.30;42.70
29539;DHT22;16482;51.046;4.498;2022-09-25T11:44:13;24.30;42.60
29539;DHT22;16482;51.046;4.498;2022-09-25T11:49:30;24.30;42.70
29539;DHT22;16482;51.046;4.498;2022-09-25T11:58:12;24.20;42.70
29539;DHT22;16482;51.046;4.498;2022-09-25T12:00:26;24.20;42.60
29539;DHT22;16482;51.046;4.498;2022-09-25T12:05:41;24.10;42.40
29539;DHT22;16482;51.046;4.498;2022-09-25T12:08:26;24.20;42.40
29539;DHT22;16482;51.046;4.498;2022-09-25T12:11:11;24.10;42.70
29539;DHT22;16482;51.046;4.498;2022-09-25T12:16:34;24.10;42.50
29539;DHT22;16482;51.046;4.498;2022-09-25T12:19:08;24.10;42.40
29539;DHT22;16482;51.046;4.498;2022-09-25T12:37:37;24.20;42.30
29539;DHT22;16482;51.046;4.498;2022-09-25T12:40:20;24.20;42.00
29539;DHT22;16482;51.046;4.498;2022-09-25T12:45:37;24.20;42.10
29539;DHT22;16482;51.046;4.498;2022-09-25T12:50:59;24.20;41.80
29539;DHT22;16482;51.046;4.498;2022-09-25T12:53:30;24.20;42.00
29539;DHT22;16482;51.046;4.498;2022-09-25T12:56:12;24.20;41.90
29539;DHT22;16482;51.046;4.498;2022-09-25T13:01:42;24.20;41.70
29539;DHT22;16482;51.046;4.498;2022-09-25T13:04:42;24.20;41.80
29539;DHT22;16482;51.046;4.498;2022-09-25T13:09:46;24.20;41.60
29539;DHT22;16482;51.046;4.498;2022-09-25T13:12:35;24.20;41.60
29539;DHT22;16482;51.046;4.498;2022-09-25T13:15:12;24.20;41.50
29539;DHT22;16482;51.046;4.498;2022-09-25T13:17:39;24.10;41.70
29539;DHT22;16482;51.046;4.498;2022-09-25T13:23:11;24.10;41.50
29539;DHT22;16482;51.046;4.498;2022-09-25T13:28:08;24.10;41.60
29539;DHT22;16482;51.046;4.498;2022-09-25T13:30:38;24.10;41.50
29539;DHT22;16482;51.046;4.498;2022-09-25T13:33:04;24.10;41.60
29539;DHT22;16482;51.046;4.498;2022-09-25T13:35:31;24.10;41.50
29539;DHT22;16482;51.046;4.498;2022-09-25T13:38:17;24.20;41.40
29539;DHT22;16482;51.046;4.498;2022-09-25T13:41:13;24.10;41.40
29539;DHT22;16482;51.046;4.498;2022-09-25T13:43:39;24.10;41.20
29539;DHT22;16482;51.046;4.498;2022-09-25T13:48:48;24.10;41.00
29539;DHT22;16482;51.046;4.498;2022-09-25T13:53:55;24.00;40.60
29539;DHT22;16482;51.046;4.498;2022-09-25T13:56:43;24.00;40.60
29539;DHT22;16482;51.046;4.498;2022-09-25T14:06:42;24.10;40.70
29539;DHT22;16482;51.046;4.498;2022-09-25T14:09:14;24.10;40.60
29539;DHT22;16482;51.046;4.498;2022-09-25T14:14:44;24.10;40.60
29539;DHT22;16482;51.046;4.498;2022-09-25T14:17:18;24.10;40.80
29539;DHT22;16482;51.046;4.498;2022-09-25T14:19:48;24.00;40.80
29539;DHT22;16482;51.046;4.498;2022-09-25T14:22:27;24.00;40.80
29539;DHT22;16482;51.046;4.498;2022-09-25T14:24:54;24.00;40.50
29539;DHT22;16482;51.046;4.498;2022-09-25T14:27:25;24.10;40.60
29539;DHT22;16482;51.046;4.498;2022-09-25T14:30:05;24.00;40.50
29539;DHT22;16482;51.046;4.498;2022-09-25T14:35:31;24.10;40.40
29539;DHT22;16482;51.046;4.498;2022-09-25T14:38:27;24.10;40.40
29539;DHT22;16482;51.046;4.498;2022-09-25T14:46:17;24.00;40.60
29539;DHT22;16482;51.046;4.498;2022-09-25T14:48:51;24.00;40.60
29539;DHT22;16482;51.046;4.498;2022-09-25T14:51:27;24.00;40.80
29539;DHT22;16482;51.046;4.498;2022-09-25T14:54:01;24.00;40.70
29539;DHT22;16482;51.046;4.498;2022-09-25T14:56:29;24.00;40.60
29539;DHT22;16482;51.046;4.498;2022-09-25T14:59:02;24.00;40.70
29539;DHT22;16482;51.046;4.498;2022-09-25T15:01:32;24.10;40.80
29539;DHT22;16482;51.046;4.498;2022-09-25T15:04:04;24.00;40.80
29539;DHT22;16482;51.046;4.498;2022-09-25T15:06:32;24.00;40.50
29539;DHT22;16482;51.046;4.498;2022-09-25T15:09:00;24.00;40.60
29539;DHT22;16482;51.046;4.498;2022-09-25T15:11:40;24.10;40.40
29539;DHT22;16482;51.046;4.498;2022-09-25T15:14:17;24.10;40.60
29539;DHT22;16482;51.046;4.498;2022-09-25T15:16:46;24.10;40.70
29539;DHT22;16482;51.046;4.498;2022-09-25T15:19:48;24.20;40.60
29539;DHT22;16482;51.046;4.498;2022-09-25T15:22:22;24.20;40.70
29539;DHT22;16482;51.046;4.498;2022-09-25T15:24:55;24.20;40.60
29539;DHT22;16482;51.046;4.498;2022-09-25T15:27:26;24.20;40.70
29539;DHT22;16482;51.046;4.498;2022-09-25T15:29:53;24.20;40.70
29539;DHT22;16482;51.046;4.498;2022-09-25T15:32:31;24.20;41.20
29539;DHT22;16482;51.046;4.498;2022-09-25T15:35:21;24.20;40.60
29539;DHT22;16482;51.046;4.498;2022-09-25T15:37:48;24.20;40.60
29539;DHT22;16482;51.046;4.498;2022-09-25T15:40:20;24.20;40.60
29539;DHT22;16482;51.046;4.498;2022-09-25T15:42:53;24.20;40.70
29539;DHT22;16482;51.046;4.498;2022-09-25T15:45:53;24.30;40.60
29539;DHT22;16482;51.046;4.498;2022-09-25T15:48:31;24.30;40.70
29539;DHT22;16482;51.046;4.498;2022-09-25T15:51:03;24.30;40.60
29539;DHT22;16482;51.046;4.498;2022-09-25T15:53:35;24.30;40.50
29539;DHT22;16482;51.046;4.498;2022-09-25T15:56:23;24.30;40.60
29539;DHT22;16482;51.046;4.498;2022-09-25T15:58:53;24.40;40.70
29539;DHT22;16482;51.046;4.498;2022-09-25T16:01:23;24.40;40.60
29539;DHT22;16482;51.046;4.498;2022-09-25T16:04:14;24.30;41.20
29539;DHT22;16482;51.046;4.498;2022-09-25T16:06:59;24.40;40.70
29539;DHT22;16482;51.046;4.498;2022-09-25T16:09:34;24.40;40.60
29539;DHT22;16482;51.046;4.498;2022-09-25T16:14:48;24.30;40.80
29539;DHT22;16482;51.046;4.498;2022-09-25T16:17:30;24.40;40.80
29539;DHT22;16482;51.046;4.498;2022-09-25T16:20:29;24.40;40.90
29539;DHT22;16482;51.046;4.498;2022-09-25T16:22:56;24.40;40.90
29539;DHT22;16482;51.046;4.498;2022-09-25T16:25:28;24.40;40.90
29539;DHT22;16482;51.046;4.498;2022-09-25T16:28:03;24.40;40.80
29539;DHT22;16482;51.046;4.498;2022-09-25T16:30:30;24.40;40.90
29539;DHT22;16482;51.046;4.498;2022-09-25T16:33:04;24.40;40.80
29539;DHT22;16482;51.046;4.498;2022-09-25T16:35:36;24.40;40.80
29539;DHT22;16482;51.046;4.498;2022-09-25T16:38:04;24.40;40.90
29539;DHT22;16482;51.046;4.498;2022-09-25T16:40:31;24.40;41.00
29539;DHT22;16482;51.046;4.498;2022-09-25T16:43:22;24.40;41.00
29539;DHT22;16482;51.046;4.498;2022-09-25T16:45:55;24.40;41.10
29539;DHT22;16482;51.046;4.498;2022-09-25T16:48:37;24.40;41.10
29539;DHT22;16482;51.046;4.498;2022-09-25T16:51:06;24.30;41.20
29539;DHT22;16482;51.046;4.498;2022-09-25T16:53:36;24.30;41.20
29539;DHT22;16482;51.046;4.498;2022-09-25T16:56:03;24.30;41.20
29539;DHT22;16482;51.046;4.498;2022-09-25T16:58:29;24.30;41.30
29539;DHT22;16482;51.046;4.498;2022-09-25T17:00:55;24.30;41.50
29539;DHT22;16482;51.046;4.498;2022-09-25T17:03:23;24.30;41.50
29539;DHT22;16482;51.046;4.498;2022-09-25T17:05:49;24.30;41.50
29539;DHT22;16482;51.046;4.498;2022-09-25T17:08:17;24.30;41.50
29539;DHT22;16482;51.046;4.498;2022-09-25T17:10:44;24.30;41.50
29539;DHT22;16482;51.046;4.498;2022-09-25T17:13:14;24.20;41.50
29539;DHT22;16482;51.046;4.498;2022-09-25T17:15:40;24.30;41.60
29539;DHT22;16482;51.046;4.498;2022-09-25T17:18:15;24.30;41.60
29539;DHT22;16482;51.046;4.498;2022-09-25T17:20:42;24.30;41.60
29539;DHT22;16482;51.046;4.498;2022-09-25T17:23:08;24.30;41.60
29539;DHT22;16482;51.046;4.498;2022-09-25T17:26:13;24.30;41.60
29539;DHT22;16482;51.046;4.498;2022-09-25T17:28:35;24.30;41.70
29539;DHT22;16482;51.046;4.498;2022-09-25T17:31:01;24.20;41.80
29539;DHT22;16482;51.046;4.498;2022-09-25T17:33:27;24.20;41.80
29539;DHT22;16482;51.046;4.498;2022-09-25T17:36:04;24.20;41.80
29539;DHT22;16482;51.046;4.498;2022-09-25T17:38:48;24.20;41.80
29539;DHT22;16482;51.046;4.498;2022-09-25T17:41:29;24.20;42.00
29539;DHT22;16482;51.046;4.498;2022-09-25T17:43:57;24.20;42.00
29539;DHT22;16482;51.046;4.498;2022-09-25T17:46:23;24.20;42.10
29539;DHT22;16482;51.046;4.498;2022-09-25T17:48:51;24.20;42.20
29539;DHT22;16482;51.046;4.498;2022-09-25T17:51:22;24.20;42.20
29539;DHT22;16482;51.046;4.498;2022-09-25T17:53:49;24.20;42.20
29539;DHT22;16482;51.046;4.498;2022-09-25T17:56:17;24.20;42.30
29539;DHT22;16482;51.046;4.498;2022-09-25T17:58:44;24.20;42.40
29539;DHT22;16482;51.046;4.498;2022-09-25T18:01:20;24.20;42.40